createdAt,value
2023-04-10T00:00:03.919Z,10.32
2023-04-10T00:02:34.487Z,11.88
2023-04-10T00:05:02.630Z,10.02
2023-04-10T00:07:30.729Z,11.30
2023-04-10T00:09:58.603Z,11.93
2023-04-10T00:12:27.248Z,12.15
2023-04-10T00:14:55.014Z,10.82
2023-04-10T00:17:23.010Z,11.07
2023-04-10T00:19:52.189Z,11.15
2023-04-10T00:22:19.999Z,11.63
2023-04-10T00:24:47.863Z,12.32
2023-04-10T00:27:15.669Z,12.05
2023-04-10T00:29:43.514Z,11.73
2023-04-10T00:32:11.496Z,12.25
2023-04-10T00:34:39.453Z,12.15
2023-04-10T00:37:08.968Z,11.23
2023-04-10T00:39:36.722Z,11.77
2023-04-10T00:42:09.328Z,11.23
2023-04-10T00:44:38.226Z,11.50
2023-04-10T00:47:06.666Z,13.23
2023-04-10T00:49:36.060Z,12.60
2023-04-10T00:52:04.261Z,11.45
2023-04-10T00:54:36.239Z,12.38
2023-04-10T00:57:05.146Z,11.00
2023-04-10T00:59:33.484Z,11.98
2023-04-10T01:02:01.761Z,10.73
2023-04-10T01:04:31.265Z,12.45
2023-04-10T01:07:05.394Z,10.95
2023-04-10T01:09:45.735Z,10.43
2023-04-10T01:12:24.363Z,9.93
2023-04-10T01:15:03.121Z,10.30
2023-04-10T01:17:36.900Z,13.43
2023-04-10T01:20:10.389Z,10.52
2023-04-10T01:22:50.580Z,10.20
2023-04-10T01:25:39.442Z,12.68
2023-04-10T01:28:34.385Z,8.55
2023-04-10T01:31:04.871Z,11.25
2023-04-10T01:33:40.027Z,10.13
2023-04-10T01:36:10.570Z,12.95
2023-04-10T01:38:43.582Z,12.05
2023-04-10T01:41:11.966Z,12.75
2023-04-10T01:43:42.899Z,12.00
2023-04-10T01:46:13.876Z,11.70
2023-04-10T01:48:42.724Z,13.02
2023-04-10T01:51:11.733Z,11.32
2023-04-10T01:53:40.808Z,11.27
2023-04-10T01:56:10.025Z,11.80
2023-04-10T01:58:44.551Z,11.70
2023-04-10T02:01:29.235Z,11.18
2023-04-10T02:03:59.375Z,12.27
2023-04-10T02:06:33.834Z,12.25
2023-04-10T02:09:11.894Z,12.52
2023-04-10T02:11:46.686Z,13.80
2023-04-10T02:14:19.184Z,10.30
2023-04-10T02:16:50.690Z,11.98
2023-04-10T02:19:20.809Z,12.50
2023-04-10T02:21:49.002Z,12.18
2023-04-10T02:24:17.174Z,10.68
2023-04-10T02:26:46.395Z,12.10
2023-04-10T02:29:14.429Z,10.65
2023-04-10T02:31:42.584Z,9.93
2023-04-10T02:34:12.581Z,9.52
2023-04-10T02:36:41.141Z,12.07
2023-04-10T02:39:11.481Z,10.50
2023-04-10T02:41:48.431Z,10.25
2023-04-10T02:44:16.410Z,9.18
2023-04-10T02:46:45.056Z,8.98
2023-04-10T02:49:16.565Z,9.60
2023-04-10T02:51:45.830Z,9.80
2023-04-10T02:54:13.759Z,9.48
2023-04-10T02:56:43.338Z,8.85
2023-04-10T02:59:11.543Z,9.93
2023-04-10T03:01:40.818Z,11.52
2023-04-10T03:04:09.372Z,9.05
2023-04-10T03:06:42.270Z,9.85
2023-04-10T03:09:10.541Z,8.75
2023-04-10T03:11:38.958Z,8.48
2023-04-10T03:14:08.097Z,9.85
2023-04-10T03:16:36.433Z,7.70
2023-04-10T03:19:05.584Z,10.48
2023-04-10T03:21:33.891Z,8.55
2023-04-10T03:24:03.526Z,7.60
2023-04-10T03:26:32.978Z,9.40
2023-04-10T03:29:01.421Z,9.75
2023-04-10T03:31:29.389Z,9.07
2023-04-10T03:33:59.926Z,6.05
2023-04-10T03:36:28.415Z,7.10
2023-04-10T03:38:56.293Z,9.75
2023-04-10T03:41:26.418Z,8.50
2023-04-10T03:43:54.966Z,7.53
2023-04-10T03:46:23.598Z,8.88
2023-04-10T03:48:54.064Z,9.35
2023-04-10T03:51:23.477Z,10.27
2023-04-10T03:53:52.255Z,7.25
2023-04-10T03:56:20.822Z,8.80
2023-04-10T03:58:50.243Z,8.07
2023-04-10T04:01:18.277Z,7.80
2023-04-10T04:04:01.480Z,7.30
2023-04-10T04:06:57.258Z,7.97
2023-04-10T04:09:30.013Z,5.72
2023-04-10T04:12:18.326Z,7.57
2023-04-10T04:15:06.634Z,9.18
2023-04-10T04:17:50.437Z,9.07
2023-04-10T04:20:35.777Z,9.27
2023-04-10T04:23:35.994Z,7.65
2023-04-10T04:26:11.182Z,9.48
2023-04-10T04:28:54.133Z,7.97
2023-04-10T04:31:38.639Z,7.45
2023-04-10T04:34:25.336Z,7.13
2023-04-10T04:37:15.613Z,8.88
2023-04-10T04:40:03.933Z,7.55
2023-04-10T04:42:57.178Z,6.93
2023-04-10T04:45:37.817Z,7.15
2023-04-10T04:48:33.406Z,6.22
2023-04-10T04:51:22.804Z,6.88
2023-04-10T04:53:57.403Z,5.85
2023-04-10T04:56:47.377Z,5.55
2023-04-10T04:59:33.690Z,6.57
2023-04-10T05:02:23.577Z,6.75
2023-04-10T05:05:09.022Z,5.22
2023-04-10T05:07:47.502Z,7.07
2023-04-10T05:10:39.007Z,5.47
2023-04-10T05:13:21.613Z,5.88
2023-04-10T05:16:08.633Z,5.00
2023-04-10T05:18:42.573Z,7.88
2023-04-10T05:21:31.285Z,7.50
2023-04-10T05:24:34.808Z,7.07
2023-04-10T05:27:18.796Z,7.85
2023-04-10T05:30:04.777Z,7.80
2023-04-10T05:32:43.500Z,4.95
2023-04-10T05:35:40.948Z,5.65
2023-04-10T05:38:21.780Z,4.28
2023-04-10T05:41:09.050Z,4.65
2023-04-10T05:43:52.839Z,5.40
2023-04-10T05:46:39.730Z,5.47
2023-04-10T05:49:34.329Z,4.50
2023-04-10T05:52:20.793Z,4.90
2023-04-10T05:55:22.279Z,4.43
2023-04-10T05:57:57.644Z,5.50
2023-04-10T06:00:45.859Z,4.47
2023-04-10T06:03:43.268Z,4.28
2023-04-10T06:06:12.498Z,5.03
2023-04-10T06:08:41.755Z,6.15
2023-04-10T06:11:11.095Z,5.75
2023-04-10T06:13:39.802Z,5.70
2023-04-10T06:16:09.032Z,3.72
2023-04-10T06:18:37.685Z,4.40
2023-04-10T06:21:06.182Z,6.00
2023-04-10T06:23:34.016Z,6.35
2023-04-10T06:26:03.526Z,4.47
2023-04-10T06:28:32.923Z,3.72
2023-04-10T06:31:04.299Z,4.72
2023-04-10T06:33:36.598Z,2.80
2023-04-10T06:36:06.769Z,3.45
2023-04-10T06:38:39.604Z,2.65
2023-04-10T06:41:07.759Z,3.92
2023-04-10T06:43:38.052Z,2.85
2023-04-10T06:46:06.663Z,2.60
2023-04-10T06:48:35.012Z,3.20
2023-04-10T06:51:03.048Z,3.50
2023-04-10T06:53:31.567Z,3.95
2023-04-10T06:56:01.585Z,1.38
2023-04-10T06:58:31.289Z,2.47
2023-04-10T07:01:04.391Z,1.75
2023-04-10T07:03:33.922Z,1.85
2023-04-10T07:06:04.958Z,3.03
2023-04-10T07:08:32.870Z,1.05
2023-04-10T07:11:01.353Z,2.42
2023-04-10T07:13:29.385Z,2.10
2023-04-10T07:15:57.468Z,2.05
2023-04-10T07:18:27.164Z,2.20
2023-04-10T07:20:55.042Z,1.95
2023-04-10T07:23:22.992Z,1.40
2023-04-10T07:25:51.651Z,1.40
2023-04-10T07:28:19.778Z,1.05
2023-04-10T07:30:48.881Z,0.90
2023-04-10T07:33:17.046Z,1.65
2023-04-10T07:35:46.517Z,0.80
2023-04-10T07:38:14.438Z,0.73
2023-04-10T07:40:42.387Z,1.25
2023-04-10T07:43:10.241Z,1.65
2023-04-10T07:45:38.287Z,1.42
2023-04-10T07:48:07.299Z,0.82
2023-04-10T07:50:36.170Z,0.80
2023-04-10T07:53:08.026Z,1.05
2023-04-10T07:55:39.199Z,1.40
2023-04-10T07:58:07.289Z,0.70
2023-04-10T08:00:35.859Z,0.75
2023-04-10T08:03:04.078Z,0.25
2023-04-10T08:05:32.133Z,0.75
2023-04-10T08:08:00.213Z,0.70
2023-04-10T08:10:29.468Z,1.45
2023-04-10T08:12:57.285Z,0.80
2023-04-10T08:15:25.227Z,0.52
2023-04-10T08:17:53.877Z,0.70
2023-04-10T08:20:22.066Z,0.50
2023-04-10T08:22:50.012Z,0.52
2023-04-10T08:25:18.145Z,0.40
2023-04-10T08:27:47.299Z,0.40
2023-04-10T08:30:15.366Z,0.77
2023-04-10T08:32:43.294Z,0.30
2023-04-10T08:35:11.222Z,0.40
2023-04-10T08:37:39.239Z,0.55
2023-04-10T08:40:08.008Z,0.50
2023-04-10T08:42:37.293Z,0.30
2023-04-10T08:45:07.638Z,0.30
2023-04-10T08:47:37.941Z,0.30
2023-04-10T08:50:09.925Z,0.40
2023-04-10T08:52:43.700Z,0.50
2023-04-10T08:55:14.309Z,0.25
2023-04-10T08:57:50.899Z,0.25
2023-04-10T09:00:27.638Z,0.63
2023-04-10T09:02:58.340Z,0.35
2023-04-10T09:05:28.654Z,0.73
2023-04-10T09:07:56.467Z,0.43
2023-04-10T09:10:24.755Z,0.55
2023-04-10T09:12:53.620Z,0.32
2023-04-10T09:15:21.542Z,0.20
2023-04-10T09:17:58.729Z,0.20
2023-04-10T09:20:27.571Z,0.20
2023-04-10T09:22:55.397Z,0.30
2023-04-10T09:25:31.813Z,0.20
2023-04-10T09:28:04.703Z,0.10
2023-04-10T09:30:37.405Z,0.73
2023-04-10T09:33:22.681Z,0.30
2023-04-10T09:35:51.166Z,0.10
2023-04-10T09:38:20.583Z,0.30
2023-04-10T09:40:49.612Z,0.15
2023-04-10T09:43:25.220Z,0.20
2023-04-10T09:45:56.306Z,0.20
2023-04-10T09:48:27.163Z,0.15
2023-04-10T09:50:55.185Z,0.30
2023-04-10T09:53:23.000Z,0.20
2023-04-10T09:55:51.703Z,0.17
2023-04-10T09:58:19.956Z,0.13
2023-04-10T10:00:50.044Z,0.25
2023-04-10T10:03:19.688Z,0.10
2023-04-10T10:05:50.666Z,0.17
2023-04-10T10:08:18.911Z,0.20
2023-04-10T10:10:48.784Z,0.20
2023-04-10T10:13:18.919Z,0.17
2023-04-10T10:15:55.741Z,0.28
2023-04-10T10:18:28.399Z,0.10
2023-04-10T10:20:57.941Z,0.15
2023-04-10T10:23:27.350Z,0.40
2023-04-10T10:25:56.064Z,0.10
2023-04-10T10:28:25.572Z,0.10
2023-04-10T10:30:54.308Z,0.10
2023-04-10T10:33:22.742Z,0.10
2023-04-10T10:35:50.786Z,0.10
2023-04-10T10:38:20.284Z,0.17
2023-04-10T10:40:55.925Z,0.20
2023-04-10T10:43:28.549Z,0.10
2023-04-10T10:46:02.879Z,0.10
2023-04-10T10:48:30.977Z,0.10
2023-04-10T10:51:00.981Z,0.10
2023-04-10T10:53:35.580Z,0.10
2023-04-10T10:56:37.380Z,0.10
2023-04-10T10:59:05.381Z,0.10
2023-04-10T11:01:33.564Z,0.10
2023-04-10T11:04:02.309Z,0.10
2023-04-10T11:06:49.888Z,0.10
2023-04-10T11:09:50.607Z,0.10
2023-04-10T11:12:21.539Z,0.32
2023-04-10T11:14:58.689Z,0.10
2023-04-10T11:17:48.617Z,0.10
2023-04-10T11:20:16.772Z,0.10
2023-04-10T11:23:11.002Z,0.30
2023-04-10T11:25:51.262Z,0.10
2023-04-10T11:28:37.978Z,0.10
2023-04-10T11:31:18.615Z,0.38
2023-04-10T11:33:47.719Z,0.10
2023-04-10T11:36:17.427Z,0.30
2023-04-10T11:39:11.551Z,0.10
2023-04-10T11:41:46.381Z,0.10
2023-04-10T11:44:16.331Z,0.10
2023-04-10T11:46:46.848Z,0.08
2023-04-10T11:49:19.816Z,0.10
2023-04-10T11:51:49.463Z,0.10
2023-04-10T11:54:18.706Z,0.10
2023-04-10T11:56:57.981Z,0.10
2023-04-10T11:59:26.791Z,0.10
2023-04-10T12:01:55.941Z,0.10
2023-04-10T12:04:25.067Z,0.13
2023-04-10T12:06:58.054Z,0.10
2023-04-10T12:09:26.284Z,0.10
2023-04-10T12:11:56.765Z,0.10
2023-04-10T12:14:30.307Z,0.00
2023-04-10T12:16:58.331Z,0.08
2023-04-10T12:19:30.634Z,0.10
2023-04-10T12:22:00.426Z,0.00
2023-04-10T12:24:44.908Z,0.00
2023-04-10T12:27:21.812Z,0.00
2023-04-10T12:29:51.233Z,0.00
2023-04-10T12:32:20.182Z,0.00
2023-04-10T12:34:51.621Z,0.00
2023-04-10T12:37:21.269Z,0.10
2023-04-10T12:39:49.258Z,0.08
2023-04-10T12:42:19.331Z,0.08
2023-04-10T12:44:56.437Z,0.00
2023-04-10T12:47:25.165Z,0.00
2023-04-10T12:50:10.123Z,0.08
2023-04-10T12:52:40.078Z,0.00
2023-04-10T12:55:12.927Z,0.00
2023-04-10T12:57:42.187Z,0.00
2023-04-10T13:00:12.774Z,0.10
2023-04-10T13:02:41.277Z,0.00
2023-04-10T13:05:10.384Z,0.10
2023-04-10T13:07:38.811Z,0.05
2023-04-10T13:10:07.727Z,0.00
2023-04-10T13:12:38.002Z,0.00
2023-04-10T13:15:07.524Z,0.00
2023-04-10T13:17:37.163Z,0.00
2023-04-10T13:20:05.752Z,0.10
2023-04-10T13:25:29.398Z,0.10
2023-04-10T13:27:57.381Z,0.08
2023-04-10T13:30:25.238Z,0.00
2023-04-10T13:32:57.714Z,0.10
2023-04-10T13:35:27.116Z,0.00
2023-04-10T13:37:55.062Z,0.00
2023-04-10T13:40:26.221Z,0.00
2023-04-10T13:42:54.106Z,0.00
2023-04-10T13:45:22.203Z,0.00
2023-04-10T13:47:52.588Z,0.00
2023-04-10T13:50:21.889Z,0.00
2023-04-10T13:52:53.839Z,0.00
2023-04-10T13:55:21.720Z,0.00
2023-04-10T13:57:49.523Z,0.00
2023-04-10T14:00:19.390Z,0.10
2023-04-10T14:02:47.439Z,0.10
2023-04-10T14:05:15.505Z,0.10
2023-04-10T14:07:44.621Z,0.10
2023-04-10T14:10:12.719Z,0.00
2023-04-10T14:12:40.732Z,0.00
2023-04-10T14:15:09.530Z,0.10
2023-04-10T14:17:37.468Z,0.00
2023-04-10T14:20:06.408Z,0.00
2023-04-10T14:22:34.211Z,0.00
2023-04-10T14:25:12.447Z,0.00
2023-04-10T14:27:41.664Z,0.00
2023-04-10T14:30:10.306Z,0.00
2023-04-10T14:32:39.802Z,0.00
2023-04-10T14:35:08.475Z,0.00
2023-04-10T14:37:36.348Z,0.00
2023-04-10T14:40:06.757Z,0.00
2023-04-10T14:42:34.695Z,0.00
2023-04-10T14:45:02.615Z,0.00
2023-04-10T14:47:30.474Z,0.00
2023-04-10T14:49:58.544Z,0.00
2023-04-10T14:52:26.503Z,0.00
2023-04-10T14:54:54.303Z,0.00
2023-04-10T14:57:23.603Z,0.00
2023-04-10T14:59:51.542Z,0.00
2023-04-10T15:02:19.463Z,0.00
2023-04-10T15:04:47.692Z,0.00
2023-04-10T15:07:15.664Z,0.00
2023-04-10T15:09:44.566Z,0.00
2023-04-10T15:12:12.654Z,0.60
2023-04-10T15:14:42.168Z,0.00
2023-04-10T15:17:10.180Z,0.00
2023-04-10T15:19:38.187Z,0.00
2023-04-10T15:22:06.168Z,0.00
2023-04-10T15:24:46.959Z,0.00
2023-04-10T15:27:22.167Z,0.00
2023-04-10T15:29:51.379Z,0.00
2023-04-10T15:32:19.498Z,0.00
2023-04-10T15:34:47.400Z,0.00
2023-04-10T15:37:15.174Z,0.00
2023-04-10T15:39:43.105Z,0.00
2023-04-10T15:42:11.057Z,0.00
2023-04-10T15:44:38.831Z,0.00
2023-04-10T15:47:08.056Z,0.00
2023-04-10T15:49:38.496Z,0.00
2023-04-10T15:52:06.988Z,0.00
2023-04-10T15:54:35.069Z,0.00
2023-04-10T15:57:03.126Z,0.00
2023-04-10T15:59:31.316Z,0.00
2023-04-10T16:01:59.162Z,0.00
2023-04-10T16:04:29.262Z,0.00
2023-04-10T16:06:57.270Z,0.00
2023-04-10T16:09:26.662Z,0.00
2023-04-10T16:11:56.049Z,0.35
2023-04-10T16:14:24.218Z,0.00
2023-04-10T16:16:52.115Z,0.00
2023-04-10T16:19:20.043Z,0.00
2023-04-10T16:21:50.137Z,0.00
2023-04-10T16:24:18.363Z,0.00
2023-04-10T16:26:46.191Z,0.00
2023-04-10T16:29:13.990Z,0.00
2023-04-10T16:31:41.883Z,0.00
2023-04-10T16:34:09.613Z,0.00
2023-04-10T16:36:37.421Z,0.00
2023-04-10T16:39:07.397Z,0.00
2023-04-10T16:41:35.362Z,0.00
2023-04-10T16:44:03.423Z,0.00
2023-04-10T16:46:33.208Z,0.00
2023-04-10T16:49:01.512Z,0.00
2023-04-10T16:51:29.361Z,0.00
2023-04-10T16:53:57.300Z,0.00
2023-04-10T16:56:26.880Z,0.00
2023-04-10T16:58:55.232Z,0.00
2023-04-10T17:01:26.273Z,0.00
2023-04-10T17:03:55.234Z,0.00
2023-04-10T17:06:23.200Z,0.00
2023-04-10T17:08:50.905Z,0.00
2023-04-10T17:11:18.729Z,0.00
2023-04-10T17:13:47.868Z,0.00
2023-04-10T17:16:15.821Z,0.00
2023-04-10T17:18:43.799Z,0.00
2023-04-10T17:21:13.013Z,0.00
2023-04-10T17:23:41.180Z,0.00
2023-04-10T17:26:14.096Z,0.00
2023-04-10T17:28:44.252Z,0.00
2023-04-10T17:31:13.588Z,0.00
2023-04-10T17:33:42.263Z,0.00
2023-04-10T17:36:12.304Z,0.00
2023-04-10T17:38:40.958Z,0.00
2023-04-10T17:41:09.967Z,0.00
2023-04-10T17:43:37.709Z,0.00
2023-04-10T17:46:05.969Z,0.00
2023-04-10T17:48:35.244Z,0.00
2023-04-10T17:51:06.230Z,0.00
2023-04-10T17:53:34.039Z,0.00
2023-04-10T17:56:02.193Z,0.00
2023-04-10T17:58:30.762Z,0.00
2023-04-10T18:00:58.517Z,0.00
2023-04-10T18:03:26.683Z,0.00
2023-04-10T18:05:56.400Z,0.10
2023-04-10T18:08:24.269Z,0.00
2023-04-10T18:10:52.178Z,0.10
2023-04-10T18:13:20.171Z,0.00
2023-04-10T18:15:48.047Z,0.00
2023-04-10T18:18:15.891Z,0.00
2023-04-10T18:20:43.804Z,0.00
2023-04-10T18:23:13.056Z,0.00
2023-04-10T18:25:40.822Z,0.00
2023-04-10T18:28:14.948Z,0.00
2023-04-10T18:30:44.434Z,0.00
2023-04-10T18:33:14.014Z,0.00
2023-04-10T18:35:42.306Z,0.00
2023-04-10T18:38:10.191Z,0.00
2023-04-10T18:40:39.461Z,0.00
2023-04-10T18:43:10.469Z,0.00
2023-04-10T18:45:40.487Z,0.00
2023-04-10T18:48:14.294Z,0.00
2023-04-10T18:50:42.411Z,0.00
2023-04-10T18:53:11.521Z,0.00
2023-04-10T18:55:41.146Z,0.00
2023-04-10T18:58:18.247Z,0.00
2023-04-10T19:00:48.732Z,0.00
2023-04-10T19:03:16.832Z,0.00
2023-04-10T19:05:44.830Z,0.00
2023-04-10T19:08:14.339Z,0.00
2023-04-10T19:10:43.983Z,0.00
2023-04-10T19:13:12.851Z,0.00
2023-04-10T19:15:42.627Z,0.00
2023-04-10T19:18:12.311Z,0.00
2023-04-10T19:20:50.552Z,0.00
2023-04-10T19:23:21.415Z,0.00
2023-04-10T19:25:58.603Z,0.00
2023-04-10T19:28:26.582Z,0.00
2023-04-10T19:30:54.609Z,0.00
2023-04-10T19:33:25.421Z,0.00
2023-04-10T19:35:53.709Z,0.00
2023-04-10T19:38:21.662Z,0.00
2023-04-10T19:40:49.464Z,0.00
2023-04-10T19:43:19.525Z,0.00
2023-04-10T19:45:47.369Z,0.00
2023-04-10T19:48:16.798Z,0.00
2023-04-10T19:50:44.917Z,0.00
2023-04-10T19:53:15.515Z,0.00
2023-04-10T19:55:45.455Z,0.00
2023-04-10T19:58:25.362Z,0.00
2023-04-10T20:01:04.679Z,0.00
2023-04-10T20:03:33.147Z,0.00
2023-04-10T20:06:01.605Z,0.00
2023-04-10T20:08:29.444Z,0.00
2023-04-10T20:10:58.328Z,0.00
2023-04-10T20:13:26.650Z,0.00
2023-04-10T20:15:54.457Z,0.00
2023-04-10T20:18:23.593Z,0.00
2023-04-10T20:20:51.577Z,0.00
2023-04-10T20:23:21.020Z,0.00
2023-04-10T20:25:48.755Z,0.00
2023-04-10T20:28:19.422Z,0.00
2023-04-10T20:30:47.124Z,0.00
2023-04-10T20:33:14.980Z,0.00
2023-04-10T20:35:44.161Z,0.00
2023-04-10T20:38:14.487Z,0.00
2023-04-10T20:40:42.242Z,0.00
2023-04-10T20:43:12.052Z,0.00
2023-04-10T20:45:40.042Z,0.00
2023-04-10T20:48:09.492Z,0.00
2023-04-10T20:50:37.544Z,0.00
2023-04-10T20:53:06.774Z,0.00
2023-04-10T20:55:38.340Z,0.00
2023-04-10T20:58:08.400Z,0.00
2023-04-10T21:00:37.246Z,0.00
2023-04-10T21:03:05.711Z,0.00
2023-04-10T21:05:33.645Z,0.00
2023-04-10T21:08:01.552Z,0.00
2023-04-10T21:10:30.698Z,0.00
2023-04-10T21:12:59.442Z,0.00
2023-04-10T21:15:27.320Z,0.00
2023-04-10T21:17:55.058Z,0.00
2023-04-10T21:20:23.834Z,0.00
2023-04-10T21:22:51.647Z,0.00
2023-04-10T21:25:19.411Z,0.00
2023-04-10T21:27:48.544Z,0.00
2023-04-10T21:30:16.594Z,0.00
2023-04-10T21:32:44.458Z,0.00
2023-04-10T21:35:12.265Z,0.00
2023-04-10T21:37:40.202Z,0.00
2023-04-10T21:40:09.248Z,0.00
2023-04-10T21:42:38.154Z,0.00
2023-04-10T21:45:08.485Z,0.00
2023-04-10T21:47:36.269Z,0.00
2023-04-10T21:50:03.948Z,0.00
2023-04-10T21:52:31.693Z,0.00
2023-04-10T21:54:59.489Z,0.00
2023-04-10T21:57:27.294Z,0.00
2023-04-10T21:59:55.065Z,0.00
2023-04-10T22:02:24.279Z,0.00
2023-04-10T22:04:54.770Z,0.00
2023-04-10T22:07:22.889Z,0.00
2023-04-10T22:09:50.645Z,0.00
2023-04-10T22:12:18.579Z,0.00
2023-04-10T22:14:46.339Z,0.00
2023-04-10T22:17:14.116Z,0.00
2023-04-10T22:19:43.414Z,0.00
2023-04-10T22:22:11.235Z,0.00
2023-04-10T22:24:39.074Z,0.00
2023-04-10T22:27:08.008Z,0.00
2023-04-10T22:29:36.662Z,0.00
2023-04-10T22:32:04.391Z,0.00
2023-04-10T22:34:32.121Z,0.00
2023-04-10T22:37:01.260Z,0.00
2023-04-10T22:39:29.031Z,0.00
2023-04-10T22:41:56.778Z,0.00
2023-04-10T22:44:24.633Z,0.00
2023-04-10T22:46:52.387Z,0.00
2023-04-10T22:49:20.058Z,0.00
2023-04-10T22:51:47.787Z,0.00
2023-04-10T22:54:16.926Z,0.00
2023-04-10T22:56:45.018Z,0.00
2023-04-10T22:59:12.938Z,0.00
2023-04-10T23:01:40.779Z,0.00
2023-04-10T23:04:08.868Z,0.00
2023-04-10T23:06:36.724Z,0.00
2023-04-10T23:09:04.633Z,0.00
2023-04-10T23:11:36.494Z,0.00
2023-04-10T23:14:07.640Z,0.00
2023-04-10T23:16:38.728Z,0.00
2023-04-10T23:19:06.611Z,0.00
2023-04-10T23:21:40.511Z,0.00
2023-04-10T23:24:08.949Z,0.00
2023-04-10T23:26:38.127Z,0.00
2023-04-10T23:29:06.175Z,0.00
2023-04-10T23:31:34.053Z,0.00
2023-04-10T23:34:04.459Z,0.00
2023-04-10T23:36:32.830Z,0.00
2023-04-10T23:39:00.693Z,0.00
2023-04-10T23:41:28.577Z,0.00
2023-04-10T23:43:58.015Z,0.00
2023-04-10T23:46:25.903Z,0.00
2023-04-10T23:48:55.352Z,0.00
2023-04-10T23:51:23.296Z,0.00
2023-04-10T23:53:51.150Z,0.00
2023-04-10T23:56:19.036Z,0.00
2023-04-10T23:58:46.854Z,0.00
